sensor_id;sensor_type;location;lat;lon;timestamp;temperature;humidity
32839;DHT22;19182;41.820;12.808;2023-02-23T00:01:37;7.10;99.90
32839;DHT22;19182;41.820;12.808;2023-02-23T00:04:04;7.20;99.90
32839;DHT22;19182;41.820;12.808;2023-02-23T00:06:31;7.20;99.90
32839;DHT22;19182;41.820;12.808;2023-02-23T00:08:58;7.10;99.90
32839;DHT22;19182;41.820;12.808;2023-02-23T00:11:27;7.10;99.90
32839;DHT22;19182;41.820;12.808;2023-02-23T00:13:54;7.10;99.90
32839;DHT22;19182;41.820;12.808;2023-02-23T00:16:24;7.00;99.90
32839;DHT22;19182;41.820;12.808;2023-02-23T00:18:56;6.90;99.90
32839;DHT22;19182;41.820;12.808;2023-02-23T00:21:27;6.90;99.90
32839;DHT22;19182;41.820;12.808;2023-02-23T00:24:01;6.90;99.90
32839;DHT22;19182;41.820;12.808;2023-02-23T00:26:30;6.90;99.90
32839;DHT22;19182;41.820;12.808;2023-02-23T00:29:01;7.00;99.90
32839;DHT22;19182;41.820;12.808;2023-02-23T00:31:29;7.00;99.90
32839;DHT22;19182;41.820;12.808;2023-02-23T00:33:59;7.10;99.90
32839;DHT22;19182;41.820;12.808;2023-02-23T00:36:28;7.20;99.90
32839;DHT22;19182;41.820;12.808;2023-02-23T00:38:57;7.30;99.90
32839;DHT22;19182;41.820;12.808;2023-02-23T00:41:26;7.30;99.90
32839;DHT22;19182;41.820;12.808;2023-02-23T00:43:57;7.30;99.90
32839;DHT22;19182;41.820;12.808;2023-02-23T00:46:26;7.20;99.90
32839;DHT22;19182;41.820;12.808;2023-02-23T00:48:53;7.20;99.90
32839;DHT22;19182;41.820;12.808;2023-02-23T00:51:21;7.30;99.90
32839;DHT22;19182;41.820;12.808;2023-02-23T00:53:48;7.40;99.90
32839;DHT22;19182;41.820;12.808;2023-02-23T00:56:15;7.40;99.90
32839;DHT22;19182;41.820;12.808;2023-02-23T00:58:47;7.40;99.90
32839;DHT22;19182;41.820;12.808;2023-02-23T01:01:13;7.40;99.90
32839;DHT22;19182;41.820;12.808;2023-02-23T01:03:41;7.50;99.90
32839;DHT22;19182;41.820;12.808;2023-02-23T01:06:10;7.50;99.90
32839;DHT22;19182;41.820;12.808;2023-02-23T01:08:39;7.50;99.90
32839;DHT22;19182;41.820;12.808;2023-02-23T01:11:06;7.50;99.90
32839;DHT22;19182;41.820;12.808;2023-02-23T01:13:34;7.50;99.90
32839;DHT22;19182;41.820;12.808;2023-02-23T01:16:04;7.40;99.90
32839;DHT22;19182;41.820;12.808;2023-02-23T01:18:32;7.30;99.90
32839;DHT22;19182;41.820;12.808;2023-02-23T01:21:00;7.40;99.90
32839;DHT22;19182;41.820;12.808;2023-02-23T01:23:27;7.40;99.90
32839;DHT22;19182;41.820;12.808;2023-02-23T01:25:53;7.40;99.90
32839;DHT22;19182;41.820;12.808;2023-02-23T01:28:18;7.40;99.90
32839;DHT22;19182;41.820;12.808;2023-02-23T01:30:44;7.40;99.90
32839;DHT22;19182;41.820;12.808;2023-02-23T01:33:10;7.30;99.90
32839;DHT22;19182;41.820;12.808;2023-02-23T01:35:39;7.30;99.90
32839;DHT22;19182;41.820;12.808;2023-02-23T01:38:04;7.30;99.90
32839;DHT22;19182;41.820;12.808;2023-02-23T01:40:31;7.40;99.90
32839;DHT22;19182;41.820;12.808;2023-02-23T01:43:05;7.50;99.90
32839;DHT22;19182;41.820;12.808;2023-02-23T01:45:39;7.50;99.90
32839;DHT22;19182;41.820;12.808;2023-02-23T01:48:27;7.40;99.90
32839;DHT22;19182;41.820;12.808;2023-02-23T01:51:01;7.30;99.90
32839;DHT22;19182;41.820;12.808;2023-02-23T01:53:30;7.20;99.90
32839;DHT22;19182;41.820;12.808;2023-02-23T01:56:05;7.10;99.90
32839;DHT22;19182;41.820;12.808;2023-02-23T01:58:40;7.10;99.90
32839;DHT22;19182;41.820;12.808;2023-02-23T02:01:08;7.00;99.90
32839;DHT22;19182;41.820;12.808;2023-02-23T02:03:46;7.00;99.90
32839;DHT22;19182;41.820;12.808;2023-02-23T02:06:16;7.00;99.90
32839;DHT22;19182;41.820;12.808;2023-02-23T02:08:44;6.90;99.90
32839;DHT22;19182;41.820;12.808;2023-02-23T02:11:17;6.90;99.90
32839;DHT22;19182;41.820;12.808;2023-02-23T02:14:13;7.00;99.90
32839;DHT22;19182;41.820;12.808;2023-02-23T02:37:02;6.60;99.90
32839;DHT22;19182;41.820;12.808;2023-02-23T02:45:04;6.50;99.90
32839;DHT22;19182;41.820;12.808;2023-02-23T02:47:55;6.40;99.90
32839;DHT22;19182;41.820;12.808;2023-02-23T02:56:36;6.40;99.90
32839;DHT22;19182;41.820;12.808;2023-02-23T02:59:16;6.20;99.90
32839;DHT22;19182;41.820;12.808;2023-02-23T03:02:02;6.20;99.90
32839;DHT22;19182;41.820;12.808;2023-02-23T03:04:47;6.10;99.90
32839;DHT22;19182;41.820;12.808;2023-02-23T03:11:02;6.20;99.90
32839;DHT22;19182;41.820;12.808;2023-02-23T03:22:59;6.20;99.90
32839;DHT22;19182;41.820;12.808;2023-02-23T03:32:24;6.00;99.90
32839;DHT22;19182;41.820;12.808;2023-02-23T03:35:14;6.10;99.90
32839;DHT22;19182;41.820;12.808;2023-02-23T03:41:34;6.00;99.90
32839;DHT22;19182;41.820;12.808;2023-02-23T03:44:32;6.00;99.90
32839;DHT22;19182;41.820;12.808;2023-02-23T03:47:19;8.50;99.90
32839;DHT22;19182;41.820;12.808;2023-02-23T03:50:11;6.00;99.90
32839;DHT22;19182;41.820;12.808;2023-02-23T03:52:59;6.10;99.90
32839;DHT22;19182;41.820;12.808;2023-02-23T03:55:48;6.20;99.90
32839;DHT22;19182;41.820;12.808;2023-02-23T03:58:46;6.30;99.90
32839;DHT22;19182;41.820;12.808;2023-02-23T04:01:34;6.40;99.90
32839;DHT22;19182;41.820;12.808;2023-02-23T04:04:20;6.60;99.90
32839;DHT22;19182;41.820;12.808;2023-02-23T04:07:06;6.50;99.90
32839;DHT22;19182;41.820;12.808;2023-02-23T04:09:51;6.60;99.90
32839;DHT22;19182;41.820;12.808;2023-02-23T04:15:54;6.70;99.90
32839;DHT22;19182;41.820;12.808;2023-02-23T04:18:24;6.70;99.90
32839;DHT22;19182;41.820;12.808;2023-02-23T04:20:50;6.80;99.90
32839;DHT22;19182;41.820;12.808;2023-02-23T04:23:17;6.90;99.90
32839;DHT22;19182;41.820;12.808;2023-02-23T04:25:43;6.80;99.90
32839;DHT22;19182;41.820;12.808;2023-02-23T04:28:09;8.20;99.90
32839;DHT22;19182;41.820;12.808;2023-02-23T04:30:35;6.90;99.90
32839;DHT22;19182;41.820;12.808;2023-02-23T04:33:00;6.80;99.90
32839;DHT22;19182;41.820;12.808;2023-02-23T04:35:26;6.80;99.90
32839;DHT22;19182;41.820;12.808;2023-02-23T04:37:56;6.90;99.90
32839;DHT22;19182;41.820;12.808;2023-02-23T04:40:21;6.80;99.90
32839;DHT22;19182;41.820;12.808;2023-02-23T04:42:49;6.80;99.90
32839;DHT22;19182;41.820;12.808;2023-02-23T04:45:16;6.70;99.90
32839;DHT22;19182;41.820;12.808;2023-02-23T04:47:41;6.80;99.90
32839;DHT22;19182;41.820;12.808;2023-02-23T04:50:07;6.70;99.90
32839;DHT22;19182;41.820;12.808;2023-02-23T04:52:37;6.70;99.90
32839;DHT22;19182;41.820;12.808;2023-02-23T04:55:05;6.60;99.90
32839;DHT22;19182;41.820;12.808;2023-02-23T04:57:32;6.80;99.90
32839;DHT22;19182;41.820;12.808;2023-02-23T04:59:58;6.80;99.90
32839;DHT22;19182;41.820;12.808;2023-02-23T05:02:24;6.80;99.90
32839;DHT22;19182;41.820;12.808;2023-02-23T05:04:53;6.70;99.90
32839;DHT22;19182;41.820;12.808;2023-02-23T05:07:19;6.60;99.90
32839;DHT22;19182;41.820;12.808;2023-02-23T05:09:45;6.60;99.90
32839;DHT22;19182;41.820;12.808;2023-02-23T05:12:11;6.50;99.90
32839;DHT22;19182;41.820;12.808;2023-02-23T05:14:36;6.60;99.90
32839;DHT22;19182;41.820;12.808;2023-02-23T05:17:03;6.60;99.90
32839;DHT22;19182;41.820;12.808;2023-02-23T05:19:29;6.60;99.90
32839;DHT22;19182;41.820;12.808;2023-02-23T05:21:56;6.60;99.90
32839;DHT22;19182;41.820;12.808;2023-02-23T05:24:21;6.70;99.90
32839;DHT22;19182;41.820;12.808;2023-02-23T05:26:47;6.60;99.90
32839;DHT22;19182;41.820;12.808;2023-02-23T05:29:14;6.60;99.90
32839;DHT22;19182;41.820;12.808;2023-02-23T05:31:41;6.60;99.90
32839;DHT22;19182;41.820;12.808;2023-02-23T05:34:07;6.90;99.90
32839;DHT22;19182;41.820;12.808;2023-02-23T05:36:33;6.90;99.90
32839;DHT22;19182;41.820;12.808;2023-02-23T05:38:59;6.90;99.90
32839;DHT22;19182;41.820;12.808;2023-02-23T05:41:25;6.90;99.90
32839;DHT22;19182;41.820;12.808;2023-02-23T05:43:53;6.80;99.90
32839;DHT22;19182;41.820;12.808;2023-02-23T05:46:23;6.80;99.90
32839;DHT22;19182;41.820;12.808;2023-02-23T05:48:50;6.70;99.90
32839;DHT22;19182;41.820;12.808;2023-02-23T05:51:16;6.60;99.90
32839;DHT22;19182;41.820;12.808;2023-02-23T05:53:43;6.60;99.90
32839;DHT22;19182;41.820;12.808;2023-02-23T05:56:14;6.70;99.90
32839;DHT22;19182;41.820;12.808;2023-02-23T05:58:55;6.70;99.90
32839;DHT22;19182;41.820;12.808;2023-02-23T06:01:26;6.70;99.90
32839;DHT22;19182;41.820;12.808;2023-02-23T06:03:52;6.70;99.90
32839;DHT22;19182;41.820;12.808;2023-02-23T06:06:18;6.60;99.90
32839;DHT22;19182;41.820;12.808;2023-02-23T06:08:44;6.50;99.90
32839;DHT22;19182;41.820;12.808;2023-02-23T06:11:10;6.50;99.90
32839;DHT22;19182;41.820;12.808;2023-02-23T06:13:36;6.30;99.90
32839;DHT22;19182;41.820;12.808;2023-02-23T06:16:03;6.30;99.90
32839;DHT22;19182;41.820;12.808;2023-02-23T06:18:29;6.30;99.90
32839;DHT22;19182;41.820;12.808;2023-02-23T06:20:59;6.30;99.90
32839;DHT22;19182;41.820;12.808;2023-02-23T06:23:26;6.60;99.90
32839;DHT22;19182;41.820;12.808;2023-02-23T06:25:53;6.70;99.90
32839;DHT22;19182;41.820;12.808;2023-02-23T06:28:20;6.70;99.90
32839;DHT22;19182;41.820;12.808;2023-02-23T06:30:47;6.60;99.90
32839;DHT22;19182;41.820;12.808;2023-02-23T06:33:13;6.50;99.90
32839;DHT22;19182;41.820;12.808;2023-02-23T06:35:40;6.50;99.90
32839;DHT22;19182;41.820;12.808;2023-02-23T06:38:05;6.60;99.90
32839;DHT22;19182;41.820;12.808;2023-02-23T06:40:32;6.70;99.90
32839;DHT22;19182;41.820;12.808;2023-02-23T06:42:58;6.70;99.90
32839;DHT22;19182;41.820;12.808;2023-02-23T06:45:27;6.70;99.90
32839;DHT22;19182;41.820;12.808;2023-02-23T06:47:53;6.60;99.90
32839;DHT22;19182;41.820;12.808;2023-02-23T06:50:40;6.60;99.90
32839;DHT22;19182;41.820;12.808;2023-02-23T06:53:06;6.70;99.90
32839;DHT22;19182;41.820;12.808;2023-02-23T06:55:32;6.90;99.90
32839;DHT22;19182;41.820;12.808;2023-02-23T06:57:59;7.10;99.90
32839;DHT22;19182;41.820;12.808;2023-02-23T07:03:50;7.70;99.90
32839;DHT22;19182;41.820;12.808;2023-02-23T07:06:16;8.00;99.90
32839;DHT22;19182;41.820;12.808;2023-02-23T07:08:42;8.40;99.90
32839;DHT22;19182;41.820;12.808;2023-02-23T07:11:13;8.90;99.90
32839;DHT22;19182;41.820;12.808;2023-02-23T07:13:40;9.30;99.90
32839;DHT22;19182;41.820;12.808;2023-02-23T07:16:08;9.70;99.90
32839;DHT22;19182;41.820;12.808;2023-02-23T07:18:34;9.90;99.90
32839;DHT22;19182;41.820;12.808;2023-02-23T07:21:00;10.20;99.90
32839;DHT22;19182;41.820;12.808;2023-02-23T07:23:25;10.20;99.90
32839;DHT22;19182;41.820;12.808;2023-02-23T07:25:52;10.10;99.90
32839;DHT22;19182;41.820;12.808;2023-02-23T07:28:22;10.00;99.90
32839;DHT22;19182;41.820;12.808;2023-02-23T07:30:48;10.00;99.90
32839;DHT22;19182;41.820;12.808;2023-02-23T07:33:15;9.80;99.90
32839;DHT22;19182;41.820;12.808;2023-02-23T07:35:44;10.00;99.90
32839;DHT22;19182;41.820;12.808;2023-02-23T07:38:09;10.20;99.90
32839;DHT22;19182;41.820;12.808;2023-02-23T07:40:35;10.40;99.90
32839;DHT22;19182;41.820;12.808;2023-02-23T07:43:01;10.50;99.90
32839;DHT22;19182;41.820;12.808;2023-02-23T07:45:27;10.70;99.90
32839;DHT22;19182;41.820;12.808;2023-02-23T07:47:53;10.90;99.90
32839;DHT22;19182;41.820;12.808;2023-02-23T07:50:18;11.10;99.90
32839;DHT22;19182;41.820;12.808;2023-02-23T07:52:44;11.40;99.90
32839;DHT22;19182;41.820;12.808;2023-02-23T07:55:10;11.90;99.90
32839;DHT22;19182;41.820;12.808;2023-02-23T07:57:39;12.10;99.90
32839;DHT22;19182;41.820;12.808;2023-02-23T08:00:06;12.20;99.90
32839;DHT22;19182;41.820;12.808;2023-02-23T08:02:32;12.70;99.90
32839;DHT22;19182;41.820;12.808;2023-02-23T08:04:58;13.10;99.90
32839;DHT22;19182;41.820;12.808;2023-02-23T08:07:24;13.90;99.90
32839;DHT22;19182;41.820;12.808;2023-02-23T08:09:52;14.20;99.90
32839;DHT22;19182;41.820;12.808;2023-02-23T08:12:18;13.90;99.90
32839;DHT22;19182;41.820;12.808;2023-02-23T08:14:44;14.00;99.90
32839;DHT22;19182;41.820;12.808;2023-02-23T08:17:10;13.80;99.90
32839;DHT22;19182;41.820;12.808;2023-02-23T08:19:36;13.90;99.90
32839;DHT22;19182;41.820;12.808;2023-02-23T08:22:04;14.10;99.90
32839;DHT22;19182;41.820;12.808;2023-02-23T08:24:30;14.30;99.90
32839;DHT22;19182;41.820;12.808;2023-02-23T08:26:57;14.80;99.90
32839;DHT22;19182;41.820;12.808;2023-02-23T08:29:23;14.60;99.90
32839;DHT22;19182;41.820;12.808;2023-02-23T08:31:49;14.80;99.90
32839;DHT22;19182;41.820;12.808;2023-02-23T08:34:18;15.20;99.90
32839;DHT22;19182;41.820;12.808;2023-02-23T08:36:45;15.40;99.90
32839;DHT22;19182;41.820;12.808;2023-02-23T08:39:11;15.60;99.90
32839;DHT22;19182;41.820;12.808;2023-02-23T08:41:38;16.30;99.90
32839;DHT22;19182;41.820;12.808;2023-02-23T08:44:04;17.10;99.90
32839;DHT22;19182;41.820;12.808;2023-02-23T08:46:29;17.30;99.90
32839;DHT22;19182;41.820;12.808;2023-02-23T08:48:55;17.80;99.90
32839;DHT22;19182;41.820;12.808;2023-02-23T08:51:22;18.00;99.90
32839;DHT22;19182;41.820;12.808;2023-02-23T08:53:47;18.60;99.90
32839;DHT22;19182;41.820;12.808;2023-02-23T08:56:13;19.40;99.90
32839;DHT22;19182;41.820;12.808;2023-02-23T08:58:40;19.60;99.90
32839;DHT22;19182;41.820;12.808;2023-02-23T09:01:07;20.30;99.90
32839;DHT22;19182;41.820;12.808;2023-02-23T09:03:33;20.70;99.90
32839;DHT22;19182;41.820;12.808;2023-02-23T09:06:10;20.90;99.90
32839;DHT22;19182;41.820;12.808;2023-02-23T09:08:36;20.90;99.90
32839;DHT22;19182;41.820;12.808;2023-02-23T09:11:02;20.80;99.90
32839;DHT22;19182;41.820;12.808;2023-02-23T09:13:28;20.90;99.90
32839;DHT22;19182;41.820;12.808;2023-02-23T09:15:53;20.80;99.90
32839;DHT22;19182;41.820;12.808;2023-02-23T09:18:19;21.10;99.90
32839;DHT22;19182;41.820;12.808;2023-02-23T09:20:48;21.30;99.90
32839;DHT22;19182;41.820;12.808;2023-02-23T09:23:15;21.50;99.90
32839;DHT22;19182;41.820;12.808;2023-02-23T09:25:42;21.30;99.90
32839;DHT22;19182;41.820;12.808;2023-02-23T09:28:10;21.30;99.90
32839;DHT22;19182;41.820;12.808;2023-02-23T09:30:37;22.00;99.90
32839;DHT22;19182;41.820;12.808;2023-02-23T09:33:06;22.50;99.90
32839;DHT22;19182;41.820;12.808;2023-02-23T09:35:32;22.40;99.90
32839;DHT22;19182;41.820;12.808;2023-02-23T09:38:01;22.00;99.90
32839;DHT22;19182;41.820;12.808;2023-02-23T09:40:48;20.80;99.90
32839;DHT22;19182;41.820;12.808;2023-02-23T09:48:42;18.00;99.90
32839;DHT22;19182;41.820;12.808;2023-02-23T09:51:15;18.30;99.90
32839;DHT22;19182;41.820;12.808;2023-02-23T09:53:44;18.30;99.90
32839;DHT22;19182;41.820;12.808;2023-02-23T09:56:39;18.60;99.90
32839;DHT22;19182;41.820;12.808;2023-02-23T09:59:14;18.80;99.90
32839;DHT22;19182;41.820;12.808;2023-02-23T10:04:55;18.20;99.90
32839;DHT22;19182;41.820;12.808;2023-02-23T10:16:17;16.70;99.90
32839;DHT22;19182;41.820;12.808;2023-02-23T10:21:35;16.90;99.90
32839;DHT22;19182;41.820;12.808;2023-02-23T10:24:13;17.40;99.90
32839;DHT22;19182;41.820;12.808;2023-02-23T10:29:22;17.50;99.90
32839;DHT22;19182;41.820;12.808;2023-02-23T10:32:46;17.40;99.90
32839;DHT22;19182;41.820;12.808;2023-02-23T10:35:16;17.60;99.90
32839;DHT22;19182;41.820;12.808;2023-02-23T10:37:42;17.70;99.90
32839;DHT22;19182;41.820;12.808;2023-02-23T10:40:32;18.00;99.90
32839;DHT22;19182;41.820;12.808;2023-02-23T10:43:01;17.90;99.90
32839;DHT22;19182;41.820;12.808;2023-02-23T10:45:29;17.60;99.90
32839;DHT22;19182;41.820;12.808;2023-02-23T10:48:00;17.50;99.90
32839;DHT22;19182;41.820;12.808;2023-02-23T10:50:29;17.50;99.90
32839;DHT22;19182;41.820;12.808;2023-02-23T10:53:36;17.50;99.90
32839;DHT22;19182;41.820;12.808;2023-02-23T10:56:17;17.60;99.90
32839;DHT22;19182;41.820;12.808;2023-02-23T10:58:46;17.30;99.90
32839;DHT22;19182;41.820;12.808;2023-02-23T11:04:17;17.30;99.90
32839;DHT22;19182;41.820;12.808;2023-02-23T11:06:47;17.50;99.90
32839;DHT22;19182;41.820;12.808;2023-02-23T11:12:21;17.70;99.90
32839;DHT22;19182;41.820;12.808;2023-02-23T11:14:50;18.20;99.90
32839;DHT22;19182;41.820;12.808;2023-02-23T11:22:31;19.10;99.90
32839;DHT22;19182;41.820;12.808;2023-02-23T11:24:59;18.90;99.90
32839;DHT22;19182;41.820;12.808;2023-02-23T11:27:26;22.60;99.90
32839;DHT22;19182;41.820;12.808;2023-02-23T11:29:55;20.50;99.90
32839;DHT22;19182;41.820;12.808;2023-02-23T11:32:26;21.00;99.90
32839;DHT22;19182;41.820;12.808;2023-02-23T11:35:24;20.70;99.90
32839;DHT22;19182;41.820;12.808;2023-02-23T11:37:52;20.40;99.90
32839;DHT22;19182;41.820;12.808;2023-02-23T11:43:05;20.60;99.90
32839;DHT22;19182;41.820;12.808;2023-02-23T11:45:37;20.90;99.90
32839;DHT22;19182;41.820;12.808;2023-02-23T11:48:04;20.80;99.90
32839;DHT22;19182;41.820;12.808;2023-02-23T11:50:33;20.40;99.90
32839;DHT22;19182;41.820;12.808;2023-02-23T11:53:14;20.00;99.90
32839;DHT22;19182;41.820;12.808;2023-02-23T11:55:47;19.50;99.90
32839;DHT22;19182;41.820;12.808;2023-02-23T12:01:03;19.00;99.90
32839;DHT22;19182;41.820;12.808;2023-02-23T12:03:48;18.80;99.90
32839;DHT22;19182;41.820;12.808;2023-02-23T12:09:05;18.00;99.90
32839;DHT22;19182;41.820;12.808;2023-02-23T12:11:41;18.00;99.90
32839;DHT22;19182;41.820;12.808;2023-02-23T12:14:25;18.00;99.90
32839;DHT22;19182;41.820;12.808;2023-02-23T12:17:14;18.20;99.90
32839;DHT22;19182;41.820;12.808;2023-02-23T12:20:05;18.20;99.90
32839;DHT22;19182;41.820;12.808;2023-02-23T12:22:39;18.20;99.90
32839;DHT22;19182;41.820;12.808;2023-02-23T12:27:55;18.30;99.90
32839;DHT22;19182;41.820;12.808;2023-02-23T12:30:25;18.60;99.90
32839;DHT22;19182;41.820;12.808;2023-02-23T12:33:09;18.70;99.90
32839;DHT22;19182;41.820;12.808;2023-02-23T12:38:55;19.00;99.90
32839;DHT22;19182;41.820;12.808;2023-02-23T12:47:43;18.80;99.90
32839;DHT22;19182;41.820;12.808;2023-02-23T12:50:38;18.40;99.90
32839;DHT22;19182;41.820;12.808;2023-02-23T12:53:19;18.10;99.90
32839;DHT22;19182;41.820;12.808;2023-02-23T12:56:05;17.60;99.90
32839;DHT22;19182;41.820;12.808;2023-02-23T12:58:43;17.60;99.90
32839;DHT22;19182;41.820;12.808;2023-02-23T13:01:38;17.90;99.90
32839;DHT22;19182;41.820;12.808;2023-02-23T13:04:17;18.10;99.90
32839;DHT22;19182;41.820;12.808;2023-02-23T13:09:35;18.30;99.90
32839;DHT22;19182;41.820;12.808;2023-02-23T13:31:54;17.10;99.90
32839;DHT22;19182;41.820;12.808;2023-02-23T13:34:30;17.00;99.90
32839;DHT22;19182;41.820;12.808;2023-02-23T13:36:58;17.00;99.90
32839;DHT22;19182;41.820;12.808;2023-02-23T13:45:23;17.00;99.90
32839;DHT22;19182;41.820;12.808;2023-02-23T13:51:07;16.80;99.90
32839;DHT22;19182;41.820;12.808;2023-02-23T13:53:44;16.70;99.90
32839;DHT22;19182;41.820;12.808;2023-02-23T13:56:33;16.60;99.90
32839;DHT22;19182;41.820;12.808;2023-02-23T13:59:06;16.70;99.90
32839;DHT22;19182;41.820;12.808;2023-02-23T14:01:46;16.60;99.90
32839;DHT22;19182;41.820;12.808;2023-02-23T14:04:20;16.50;99.90
32839;DHT22;19182;41.820;12.808;2023-02-23T14:06:53;16.50;99.90
32839;DHT22;19182;41.820;12.808;2023-02-23T14:09:26;16.40;99.90
32839;DHT22;19182;41.820;12.808;2023-02-23T14:12:24;16.50;99.90
32839;DHT22;19182;41.820;12.808;2023-02-23T14:14:51;16.40;99.90
32839;DHT22;19182;41.820;12.808;2023-02-23T14:23:25;16.30;99.90
32839;DHT22;19182;41.820;12.808;2023-02-23T14:28:38;16.30;99.90
32839;DHT22;19182;41.820;12.808;2023-02-23T14:38:59;16.80;99.90
32839;DHT22;19182;41.820;12.808;2023-02-23T14:44:27;16.60;99.90
32839;DHT22;19182;41.820;12.808;2023-02-23T14:47:02;16.40;99.90
32839;DHT22;19182;41.820;12.808;2023-02-23T14:49:31;16.20;99.90
32839;DHT22;19182;41.820;12.808;2023-02-23T14:52:31;16.30;99.90
32839;DHT22;19182;41.820;12.808;2023-02-23T14:57:39;16.10;99.90
32839;DHT22;19182;41.820;12.808;2023-02-23T15:00:27;16.10;99.90
32839;DHT22;19182;41.820;12.808;2023-02-23T15:02:57;16.20;99.90
32839;DHT22;19182;41.820;12.808;2023-02-23T15:05:28;16.10;99.90
32839;DHT22;19182;41.820;12.808;2023-02-23T15:07:57;15.90;99.90
32839;DHT22;19182;41.820;12.808;2023-02-23T15:10:31;15.90;99.90
32839;DHT22;19182;41.820;12.808;2023-02-23T15:12:58;15.70;99.90
32839;DHT22;19182;41.820;12.808;2023-02-23T15:15:26;15.60;99.90
32839;DHT22;19182;41.820;12.808;2023-02-23T15:17:54;15.40;99.90
32839;DHT22;19182;41.820;12.808;2023-02-23T15:20:23;15.40;99.90
32839;DHT22;19182;41.820;12.808;2023-02-23T15:22:54;15.30;99.90
32839;DHT22;19182;41.820;12.808;2023-02-23T15:25:34;15.40;99.90
32839;DHT22;19182;41.820;12.808;2023-02-23T15:28:10;15.30;99.90
32839;DHT22;19182;41.820;12.808;2023-02-23T15:30:47;15.30;99.90
32839;DHT22;19182;41.820;12.808;2023-02-23T15:33:20;15.20;99.90
32839;DHT22;19182;41.820;12.808;2023-02-23T15:38:34;14.90;99.90
32839;DHT22;19182;41.820;12.808;2023-02-23T15:41:06;14.80;99.90
32839;DHT22;19182;41.820;12.808;2023-02-23T15:43:33;14.70;99.90
32839;DHT22;19182;41.820;12.808;2023-02-23T15:46:02;14.70;99.90
32839;DHT22;19182;41.820;12.808;2023-02-23T15:48:47;14.60;99.90
32839;DHT22;19182;41.820;12.808;2023-02-23T15:51:42;14.50;99.90
32839;DHT22;19182;41.820;12.808;2023-02-23T15:54:34;14.40;99.90
32839;DHT22;19182;41.820;12.808;2023-02-23T15:57:06;14.20;99.90
32839;DHT22;19182;41.820;12.808;2023-02-23T15:59:39;14.20;99.90
32839;DHT22;19182;41.820;12.808;2023-02-23T16:02:16;16.30;99.90
32839;DHT22;19182;41.820;12.808;2023-02-23T16:04:46;14.10;99.90
32839;DHT22;19182;41.820;12.808;2023-02-23T16:07:18;14.10;99.90
32839;DHT22;19182;41.820;12.808;2023-02-23T16:12:19;13.80;99.90
32839;DHT22;19182;41.820;12.808;2023-02-23T16:14:53;13.70;99.90
32839;DHT22;19182;41.820;12.808;2023-02-23T16:20:05;13.60;99.90
32839;DHT22;19182;41.820;12.808;2023-02-23T16:22:35;13.50;99.90
32839;DHT22;19182;41.820;12.808;2023-02-23T16:25:09;13.40;99.90
32839;DHT22;19182;41.820;12.808;2023-02-23T16:27:36;13.30;99.90
32839;DHT22;19182;41.820;12.808;2023-02-23T16:33:10;13.10;99.90
32839;DHT22;19182;41.820;12.808;2023-02-23T16:35:44;13.00;99.90
32839;DHT22;19182;41.820;12.808;2023-02-23T16:40:48;12.80;99.90
32839;DHT22;19182;41.820;12.808;2023-02-23T16:43:14;12.70;99.90
32839;DHT22;19182;41.820;12.808;2023-02-23T16:45:41;12.60;99.90
32839;DHT22;19182;41.820;12.808;2023-02-23T16:48:17;12.50;99.90
32839;DHT22;19182;41.820;12.808;2023-02-23T16:50:43;12.50;99.90
32839;DHT22;19182;41.820;12.808;2023-02-23T16:53:11;12.30;99.90
32839;DHT22;19182;41.820;12.808;2023-02-23T16:55:39;12.10;99.90
32839;DHT22;19182;41.820;12.808;2023-02-23T16:58:09;12.00;99.90
32839;DHT22;19182;41.820;12.808;2023-02-23T17:00:35;11.70;99.90
32839;DHT22;19182;41.820;12.808;2023-02-23T17:03:01;11.60;99.90
32839;DHT22;19182;41.820;12.808;2023-02-23T17:05:30;11.40;99.90
32839;DHT22;19182;41.820;12.808;2023-02-23T17:07:56;11.40;99.90
32839;DHT22;19182;41.820;12.808;2023-02-23T17:10:29;11.30;99.90
32839;DHT22;19182;41.820;12.808;2023-02-23T17:12:57;11.20;99.90
32839;DHT22;19182;41.820;12.808;2023-02-23T17:15:26;11.10;99.90
32839;DHT22;19182;41.820;12.808;2023-02-23T17:17:55;10.90;99.90
32839;DHT22;19182;41.820;12.808;2023-02-23T17:20:26;10.80;99.90
32839;DHT22;19182;41.820;12.808;2023-02-23T17:22:53;10.90;99.90
32839;DHT22;19182;41.820;12.808;2023-02-23T17:25:21;10.80;99.90
32839;DHT22;19182;41.820;12.808;2023-02-23T17:27:59;10.80;99.90
32839;DHT22;19182;41.820;12.808;2023-02-23T17:30:25;10.70;99.90
32839;DHT22;19182;41.820;12.808;2023-02-23T17:32:55;10.70;99.90
32839;DHT22;19182;41.820;12.808;2023-02-23T17:35:22;10.60;99.90
32839;DHT22;19182;41.820;12.808;2023-02-23T17:37:48;10.70;99.90
32839;DHT22;19182;41.820;12.808;2023-02-23T17:40:22;10.80;99.90
32839;DHT22;19182;41.820;12.808;2023-02-23T17:42:53;10.80;99.90
32839;DHT22;19182;41.820;12.808;2023-02-23T17:45:19;10.70;99.90
32839;DHT22;19182;41.820;12.808;2023-02-23T17:47:45;10.60;99.90
32839;DHT22;19182;41.820;12.808;2023-02-23T17:50:10;10.60;99.90
32839;DHT22;19182;41.820;12.808;2023-02-23T17:52:36;10.60;99.90
32839;DHT22;19182;41.820;12.808;2023-02-23T17:55:02;10.60;99.90
32839;DHT22;19182;41.820;12.808;2023-02-23T17:57:30;10.60;99.90
32839;DHT22;19182;41.820;12.808;2023-02-23T17:59:57;10.60;99.90
32839;DHT22;19182;41.820;12.808;2023-02-23T18:02:23;10.60;99.90
32839;DHT22;19182;41.820;12.808;2023-02-23T18:04:51;10.20;99.90
32839;DHT22;19182;41.820;12.808;2023-02-23T18:07:24;10.20;99.90
32839;DHT22;19182;41.820;12.808;2023-02-23T18:09:51;10.10;99.90
32839;DHT22;19182;41.820;12.808;2023-02-23T18:12:17;9.80;99.90
32839;DHT22;19182;41.820;12.808;2023-02-23T18:14:44;9.50;99.90
32839;DHT22;19182;41.820;12.808;2023-02-23T18:17:11;11.90;99.90
32839;DHT22;19182;41.820;12.808;2023-02-23T18:19:37;9.40;99.90
32839;DHT22;19182;41.820;12.808;2023-02-23T18:22:04;9.40;99.90
32839;DHT22;19182;41.820;12.808;2023-02-23T18:24:30;9.40;99.90
32839;DHT22;19182;41.820;12.808;2023-02-23T18:26:56;9.30;99.90
32839;DHT22;19182;41.820;12.808;2023-02-23T18:29:26;9.60;99.90
32839;DHT22;19182;41.820;12.808;2023-02-23T18:31:54;9.10;99.90
32839;DHT22;19182;41.820;12.808;2023-02-23T18:34:21;9.00;99.90
32839;DHT22;19182;41.820;12.808;2023-02-23T18:36:47;9.00;99.90
32839;DHT22;19182;41.820;12.808;2023-02-23T18:39:12;9.00;99.90
32839;DHT22;19182;41.820;12.808;2023-02-23T18:41:40;9.00;99.90
32839;DHT22;19182;41.820;12.808;2023-02-23T18:44:10;8.90;99.90
32839;DHT22;19182;41.820;12.808;2023-02-23T18:46:35;8.80;99.90
32839;DHT22;19182;41.820;12.808;2023-02-23T18:49:02;8.80;99.90
32839;DHT22;19182;41.820;12.808;2023-02-23T18:51:30;8.80;99.90